createdAt,value
2023-03-06T06:05:14.020Z,7.10
2023-03-06T06:10:17.764Z,7.10
2023-03-06T06:15:21.251Z,7.10
2023-03-06T06:20:27.531Z,7.00
2023-03-06T06:25:31.131Z,7.00
2023-03-06T06:30:35.159Z,7.00
2023-03-06T06:35:40.052Z,7.00
2023-03-06T06:40:43.613Z,7.00
2023-03-06T06:45:49.566Z,7.10
2023-03-06T06:50:57.785Z,7.20
2023-03-06T06:56:01.733Z,7.20
2023-03-06T07:01:09.243Z,7.30
2023-03-06T07:06:14.189Z,7.30
2023-03-06T07:11:19.136Z,7.30
2023-03-06T07:16:22.780Z,7.30
2023-03-06T07:21:27.725Z,7.20
2023-03-06T07:26:34.395Z,7.20
2023-03-06T07:31:38.680Z,7.10
2023-03-06T07:36:44.259Z,7.20
2023-03-06T07:41:47.816Z,7.20
2023-03-06T07:46:51.416Z,7.20
2023-03-06T07:51:56.330Z,7.30
2023-03-06T07:57:00.125Z,7.30
2023-03-06T08:02:03.762Z,7.40
2023-03-06T08:07:08.738Z,7.50
2023-03-06T08:12:12.246Z,7.50
2023-03-06T08:17:15.922Z,7.50
2023-03-06T08:22:20.799Z,7.50
2023-03-06T08:27:24.410Z,7.50
2023-03-06T08:32:28.755Z,7.50
2023-03-06T08:37:33.894Z,7.60
2023-03-06T08:42:37.507Z,7.80
2023-03-06T08:47:41.237Z,8.00
2023-03-06T08:52:46.177Z,8.10
2023-03-06T08:57:49.770Z,8.10
2023-03-06T09:02:53.335Z,8.10
2023-03-06T09:07:58.198Z,8.20
2023-03-06T09:13:01.771Z,8.20
2023-03-06T09:18:05.509Z,8.20
2023-03-06T09:23:10.461Z,8.30
2023-03-06T09:28:13.939Z,8.30
2023-03-06T09:33:17.930Z,8.50
2023-03-06T09:38:24.959Z,8.50
2023-03-06T09:43:32.628Z,8.60
2023-03-06T09:48:50.026Z,8.50
2023-03-06T09:54:03.970Z,8.50
2023-03-06T09:59:15.989Z,8.50
2023-03-06T10:04:33.889Z,8.60
2023-03-06T10:09:44.109Z,8.60
2023-03-06T10:14:52.978Z,8.70
2023-03-06T10:19:56.573Z,8.70
2023-03-06T10:25:10.743Z,8.90
2023-03-06T10:30:27.337Z,9.00
2023-03-06T10:35:36.480Z,9.10
2023-03-06T10:40:48.706Z,9.20
2023-03-06T10:45:54.274Z,9.30
2023-03-06T10:51:18.459Z,9.30
2023-03-06T10:56:33.014Z,9.40
2023-03-06T11:01:37.395Z,9.60
2023-03-06T11:06:40.719Z,9.70
2023-03-06T11:11:45.663Z,9.90
2023-03-06T11:16:53.263Z,9.90
2023-03-06T11:22:03.012Z,10.00
2023-03-06T11:27:24.740Z,10.00
2023-03-06T11:32:32.174Z,10.10
2023-03-06T11:37:46.936Z,10.20
2023-03-06T11:42:55.182Z,10.30
2023-03-06T11:48:10.575Z,10.50
2023-03-06T11:53:16.294Z,10.60
2023-03-06T11:58:43.337Z,10.70
2023-03-06T12:04:00.914Z,10.90
2023-03-06T12:09:21.977Z,10.90
2023-03-06T12:14:43.544Z,10.80
2023-03-06T12:20:05.490Z,10.60
2023-03-06T12:25:25.705Z,10.60
2023-03-06T12:30:45.325Z,10.60
2023-03-06T12:36:15.120Z,10.50
2023-03-06T12:41:28.486Z,10.50
2023-03-06T12:46:38.473Z,10.50
2023-03-06T12:51:44.208Z,10.50
2023-03-06T12:56:50.370Z,10.60
2023-03-06T13:02:23.185Z,10.70
2023-03-06T13:07:36.679Z,10.70
2023-03-06T13:12:56.817Z,10.80
2023-03-06T13:18:02.166Z,11.00
2023-03-06T13:23:43.649Z,10.90
2023-03-06T13:28:50.355Z,10.90
2023-03-06T13:34:00.579Z,11.10
2023-03-06T13:39:07.149Z,11.00
2023-03-06T13:44:45.949Z,11.10
2023-03-06T13:49:50.915Z,11.40
2023-03-06T13:55:02.282Z,11.60
2023-03-06T14:00:38.582Z,11.80
2023-03-06T14:05:48.262Z,11.90
2023-03-06T14:11:02.529Z,11.80
2023-03-06T14:16:12.045Z,11.80
2023-03-06T14:21:26.948Z,11.70
2023-03-06T14:26:34.818Z,11.60
2023-03-06T14:31:43.566Z,11.70
2023-03-06T14:36:50.811Z,11.80
2023-03-06T14:42:06.693Z,11.70
2023-03-06T14:47:23.637Z,11.80
2023-03-06T14:52:29.163Z,11.60
2023-03-06T14:57:33.010Z,11.30
2023-03-06T15:02:37.198Z,11.10
2023-03-06T15:07:43.564Z,10.90
2023-03-06T15:12:47.121Z,10.90
2023-03-06T15:17:50.935Z,11.00
2023-03-06T15:22:55.772Z,11.00
2023-03-06T15:28:01.304Z,11.10
2023-03-06T15:33:20.634Z,11.10
2023-03-06T15:38:36.802Z,11.20
2023-03-06T15:43:41.372Z,11.10
2023-03-06T15:48:53.650Z,11.10
2023-03-06T15:54:11.269Z,11.10
2023-03-06T15:59:24.275Z,11.10
2023-03-06T16:04:27.959Z,11.00
2023-03-06T16:09:33.047Z,10.80
2023-03-06T16:14:36.538Z,10.70
2023-03-06T16:19:40.229Z,10.70
2023-03-06T16:24:45.140Z,10.80
2023-03-06T16:31:16.505Z,10.80
2023-03-06T16:36:22.028Z,10.80
2023-03-06T16:41:25.846Z,10.70
2023-03-06T16:46:31.734Z,10.70
2023-03-06T16:51:40.504Z,10.70
2023-03-06T16:56:44.428Z,10.60
2023-03-06T17:01:49.354Z,10.50
2023-03-06T17:06:53.318Z,10.50
2023-03-06T17:11:56.884Z,10.40
2023-03-06T17:17:01.794Z,10.40
2023-03-06T17:22:05.475Z,10.30
2023-03-06T17:27:09.063Z,10.20
2023-03-06T17:32:14.990Z,10.10
2023-03-06T17:37:19.215Z,10.10
2023-03-06T17:42:22.806Z,10.10
2023-03-06T17:47:27.708Z,10.00
2023-03-06T17:52:31.398Z,9.90
2023-03-06T17:57:34.969Z,9.90
2023-03-06T18:02:40.306Z,9.80
2023-03-06T18:07:43.969Z,9.80
2023-03-06T18:12:47.630Z,9.70
2023-03-06T18:17:52.537Z,9.60
2023-03-06T18:22:56.091Z,9.60
2023-03-06T18:28:00.095Z,9.60
2023-03-06T18:33:05.151Z,9.60
2023-03-06T18:38:08.677Z,9.50
2023-03-06T18:43:12.370Z,9.50
2023-03-06T18:48:17.235Z,9.50
2023-03-06T18:53:21.470Z,9.60
2023-03-06T18:58:25.060Z,9.60
2023-03-06T19:03:30.265Z,9.50
2023-03-06T19:08:34.136Z,9.40
2023-03-06T19:13:37.947Z,9.40
2023-03-06T19:18:42.872Z,9.30
2023-03-06T19:23:46.649Z,9.20
2023-03-06T19:28:50.767Z,9.20
2023-03-06T19:33:57.016Z,9.10
2023-03-06T19:39:02.101Z,9.10
2023-03-06T19:44:06.253Z,9.10
2023-03-06T19:49:16.646Z,9.00
2023-03-06T19:54:23.427Z,8.90
2023-03-06T19:59:27.087Z,9.00
2023-03-06T20:04:34.310Z,8.90
2023-03-06T20:09:37.846Z,8.90
2023-03-06T20:14:41.441Z,8.90
2023-03-06T20:19:46.407Z,8.80
2023-03-06T20:24:49.949Z,8.90
2023-03-06T20:29:53.470Z,8.80
2023-03-06T20:34:58.350Z,8.80
2023-03-06T20:40:01.938Z,8.80
2023-03-06T20:45:06.637Z,8.80
2023-03-06T20:50:12.568Z,8.80
2023-03-06T20:55:16.276Z,8.80
2023-03-06T21:00:21.080Z,8.80
2023-03-06T21:05:26.102Z,8.70
2023-03-06T21:10:31.101Z,8.70
2023-03-06T21:15:34.927Z,8.70
2023-03-06T21:20:41.520Z,8.70
2023-03-06T21:25:49.763Z,8.60
2023-03-06T21:30:53.418Z,8.60
2023-03-06T21:35:58.299Z,8.60
2023-03-06T21:41:08.453Z,8.70
2023-03-06T21:46:12.854Z,8.70
2023-03-06T21:51:19.457Z,8.70
2023-03-06T21:56:25.368Z,8.60
2023-03-06T22:01:30.453Z,8.60
2023-03-06T22:06:35.329Z,8.60
2023-03-06T22:11:38.879Z,8.60
2023-03-06T22:16:42.526Z,8.50
2023-03-06T22:21:47.454Z,8.50
2023-03-06T22:26:51.001Z,8.60
2023-03-06T22:31:54.548Z,8.60
2023-03-06T22:36:59.507Z,8.60
2023-03-06T22:42:03.109Z,8.60
2023-03-06T22:47:06.931Z,8.50
2023-03-06T22:52:13.381Z,8.50
2023-03-06T22:57:18.401Z,8.50
2023-03-06T23:02:21.932Z,8.40
2023-03-06T23:07:26.771Z,8.30
2023-03-06T23:12:37.114Z,8.30
2023-03-06T23:17:59.032Z,8.30
2023-03-06T23:23:22.732Z,8.30
2023-03-06T23:28:26.101Z,8.30
